« 露機も見たい総合予行 小松飛行場 2012/9/20 thu | トップページ | ’12航空祭 in KOMATSU B.I.編 小松飛行場 2012/9/23 sun »

2012/09/22

露機も見たいブルーインパルス 小松飛行場 2012/9/22 sat

2年ぶりの小松航空祭もいよいよ明日。今日は恒例のブルーインパルスの事前予行だ。午後からの予定なので、押っ取り刀で小松に向かった。

METAR RJNK 220200Z 30005KT 250V010 9999 FEW020 26/13 Q1012

20120922_rjnk_00bi

小生にとっては昨年の那覇以来の再会。新チームになって初めてだ。珍しく#5が2機いる編成となっている。

20120922_rjnk_01ccc

エプロンには、すでに外来機が並んでいる。

20120922_rjnk_02f15

小生が到着したのは11時過ぎ。その時F15のエンジン音が聞こえていた。なんだーと思いながらラジオ等の準備をしていると、なんとホットスクランブルではないですか。聞くところによるとこの時が、この日の2発目らしい。22時現在、統幕からの発表は無い。

23日に発表があって資料は手元にあるが、HP上は項目なし

・ロシア機の日本海における飛行について(統幕発表) -> 「p20120924.pdf」をダウンロード

20120922_rjnk_03f628878

約1時間半のミッションで帰還してきた。

F-15J 62-8878 306SQ J03

20120922_rjnk_04f428945

F-15J 42-8945 306SQ J04

20120922_rjnk_05bi

ブルーのミッションは13時チョイ前から始まって、タクシーアウト。以下、特に解説はつけない流れで予行の模様を。

METAR RJNK 220400Z 35011KT 9999 FEW035 BKN250 27/15 Q1011

20120922_rjnk_06bi

20120922_rjnk_07bi

20120922_rjnk_08bi

20120922_rjnk_09bi

20120922_rjnk_10bi

20120922_rjnk_11bi

20120922_rjnk_12bi

20120922_rjnk_13bi

20120922_rjnk_14bi

20120922_rjnk_15bi

20120922_rjnk_16bi

20120922_rjnk_17bi

20120922_rjnk_18bi

20120922_rjnk_19bi

20120922_rjnk_20bi

20120922_rjnk_21bi

20120922_rjnk_22bi

20120922_rjnk_23bi

20120922_rjnk_24bi

20120922_rjnk_25bi

20120922_rjnk_26bi

20120922_rjnk_27bi

20120922_rjnk_28bi

20120922_rjnk_29bi

20120922_rjnk_30bi

20120922_rjnk_31bi

20120922_rjnk_32bi_2

20120922_rjnk_33bi

20120922_rjnk_34bi

20120922_rjnk_35bi

20120922_rjnk_36bi

20120922_rjnk_37bi

20120922_rjnk_38bi

20120922_rjnk_39bi

20120922_rjnk_40bi

20120922_rjnk_41bi

20120922_rjnk_42bi465728

#1 46-5728

20120922_rjnk_43bi465726

#2 46-5726

20120922_rjnk_44bi465729

#3 46-5729

20120922_rjnk_45bi465730

#4 46-5730

20120922_rjnk_46bi665745

#5 66-5745

20120922_rjnk_47bi465725

#6 46-5725

20120922_rjnk_48lxvcc

最後はカーゴルクスの-8との遭遇。

明日も、晴れますよーに。

whightwing681 さんの動画

|

« 露機も見たい総合予行 小松飛行場 2012/9/20 thu | トップページ | ’12航空祭 in KOMATSU B.I.編 小松飛行場 2012/9/23 sun »

小松飛行場」カテゴリの記事

BI」カテゴリの記事

コメント

コメントを書く



(ウェブ上には掲載しません)


コメントは記事投稿者が公開するまで表示されません。



トラックバック


この記事へのトラックバック一覧です: 露機も見たいブルーインパルス 小松飛行場 2012/9/22 sat:

« 露機も見たい総合予行 小松飛行場 2012/9/20 thu | トップページ | ’12航空祭 in KOMATSU B.I.編 小松飛行場 2012/9/23 sun »